createdAt,value
2022-12-31T00:06:58.576Z,10.20
2022-12-31T00:22:00.361Z,10.03
2022-12-31T00:37:02.176Z,9.99
2022-12-31T00:52:05.260Z,10.00
2022-12-31T01:07:07.124Z,9.91
2022-12-31T01:22:08.955Z,9.84
2022-12-31T01:37:10.766Z,9.82
2022-12-31T01:52:15.120Z,9.95
2022-12-31T02:07:16.937Z,9.80
2022-12-31T02:22:42.980Z,9.68
2022-12-31T02:37:50.025Z,9.46
2022-12-31T02:52:54.912Z,9.26
2022-12-31T03:07:56.947Z,8.74
2022-12-31T03:22:58.758Z,8.55
2022-12-31T03:38:00.783Z,8.06
2022-12-31T03:53:02.982Z,8.03
2022-12-31T04:08:05.118Z,7.82
2022-12-31T04:23:06.986Z,7.45
2022-12-31T04:38:08.792Z,7.60
2022-12-31T04:53:11.171Z,7.44
2022-12-31T05:08:13.607Z,7.37
2022-12-31T05:23:16.975Z,7.31
2022-12-31T05:38:18.801Z,7.20
2022-12-31T05:53:21.248Z,7.16
2022-12-31T06:08:24.143Z,7.42
2022-12-31T06:23:25.938Z,7.24
2022-12-31T06:38:30.208Z,7.31
2022-12-31T06:53:32.989Z,7.37
2022-12-31T07:08:45.052Z,7.48
2022-12-31T07:23:47.146Z,7.18
2022-12-31T07:38:56.612Z,7.31
2022-12-31T07:53:58.507Z,7.18
2022-12-31T08:09:25.985Z,7.71
2022-12-31T08:24:43.266Z,7.82
2022-12-31T08:40:15.533Z,7.82
2022-12-31T08:55:19.911Z,7.87
2022-12-31T09:10:32.025Z,8.07
2022-12-31T09:25:34.092Z,8.14
2022-12-31T09:41:06.098Z,8.21
2022-12-31T09:56:29.702Z,8.22
2022-12-31T10:11:38.114Z,8.12
2022-12-31T10:26:39.862Z,8.34
2022-12-31T10:41:49.073Z,8.37
2022-12-31T10:57:12.491Z,8.47
2022-12-31T11:12:34.729Z,8.51
2022-12-31T11:28:02.752Z,8.49
2022-12-31T11:43:26.365Z,8.06
2022-12-31T11:58:30.014Z,8.20
2022-12-31T12:13:31.940Z,7.98
2022-12-31T12:28:45.783Z,8.09
2022-12-31T12:43:47.998Z,7.83
2022-12-31T12:58:59.552Z,7.71
2022-12-31T13:14:24.395Z,7.77
2022-12-31T13:29:31.613Z,7.64
2022-12-31T13:44:40.356Z,7.60
2022-12-31T13:59:50.714Z,7.51
2022-12-31T14:14:55.374Z,7.42
2022-12-31T14:30:05.654Z,7.26
2022-12-31T14:45:27.612Z,7.20
2022-12-31T15:00:57.013Z,7.00
2022-12-31T15:16:14.130Z,6.90
2022-12-31T15:31:18.961Z,6.74
2022-12-31T15:46:26.503Z,6.72
2022-12-31T16:01:37.237Z,6.73
2022-12-31T16:16:39.147Z,6.56
2022-12-31T16:31:43.600Z,6.06
2022-12-31T16:46:55.255Z,5.46
2022-12-31T17:02:02.112Z,5.37
2022-12-31T17:17:08.837Z,5.56
2022-12-31T17:32:19.770Z,5.48
2022-12-31T17:47:21.839Z,5.28
2022-12-31T18:02:24.126Z,5.23
2022-12-31T18:17:26.049Z,5.14
2022-12-31T18:32:32.043Z,4.42
2022-12-31T18:47:37.625Z,4.14
2022-12-31T19:02:40.348Z,4.12
2022-12-31T19:17:42.188Z,3.85
2022-12-31T19:32:44.169Z,4.10
2022-12-31T19:47:46.920Z,4.66
2022-12-31T20:02:50.744Z,4.60
2022-12-31T20:17:52.873Z,4.83
2022-12-31T20:32:55.752Z,4.74
2022-12-31T20:47:57.557Z,5.01
2022-12-31T21:03:10.469Z,4.76
2022-12-31T21:18:24.131Z,4.76
2022-12-31T21:33:26.042Z,4.80
2022-12-31T21:48:27.933Z,4.74
2022-12-31T22:03:30.314Z,4.64
2022-12-31T22:18:34.729Z,4.41
2022-12-31T22:33:36.705Z,4.45
2022-12-31T22:48:38.899Z,4.69
2022-12-31T23:03:42.951Z,4.78
2022-12-31T23:19:05.645Z,4.63
2022-12-31T23:34:08.734Z,4.61
2022-12-31T23:49:11.844Z,4.55
